Taos, NM (87571)

9:48 AM MDT on August 03, 2015 (GMT -0600)
Blueberry Hill | | Change Station
CLOSE
Current Station
Personal Weather Station
Location: El Prado, NM
Elevation: 7064 ft
Nearby Weather Stations

Elev 7064 ft 36.43 °N, 105.60 °W | Updated 13 minutes ago

Mostly Cloudy
Mostly Cloudy
76.1 °F
Feels Like 78 °F
N
2.7
Wind Variable Wind from NE

Today
High -- | Low -- °F
--% Chance of Precip.
Yesterday
High -- | Low -- °F
Precip. -- in
6:10 AM 8:06 PM
Waning Gibbous, 86% visible
Pressure 30.29 in
Visibility 10.0 miles
Clouds Mostly Cloudy 1900 ft
Heat Index 78 °F
Dew Point 63 °F
Humidity 63%
Rainfall 0.02 in
Snow Depth Not available.
UV 3 out of 12
Pollen 6.80 out of 12
Air Quality Not available.
Flu Activity Not available.
METAR KSKX 031535Z AUTO 00000KT 10SM BKN019 18/09 A3029 RMK AO1

More Conditions Fewer Conditions

Pressure 30.29 in
Visibility 10.0 miles
Clouds Mostly Cloudy 1900 ft
Heat Index 78 °F
Dew Point 63 °F
Humidity 63%
Rainfall 0.02 in
Snow Depth Not available.
UV 3 out of 12
Pollen 6.80 out of 12
Air Quality Not available.
Flu Activity Not available.
METAR KSKX 031535Z AUTO 00000KT 10SM BKN019 18/09 A3029 RMK AO1

More Conditions Fewer Conditions

10-Day Weather Forecast

×

Almanac

Astronomy

Aug. 03, 2015 Rise Set
Actual Time
Civil Twilight
Nautical Twilight
Astronomical Twilight
Moon
Length of Visible Light
Length of Day
Tomorrow will be .
, % of the Moon is Illuminated

Today's Extremes

State Highs State Lows

Community

WunderPhotos

Upload Photos

1,843,645 photos uploaded!

WunderBlogs® & News

Nearby

Air Quality

  Air Quality AQ Index Pollutant
Not available.

Snow Depth

Station Depth Elevation

Earthquake Activity

City Distance Mag. Time & Date
Minimum magnitude displayed is 2.5.

Coastal Water Temperatures

Place Temperature

Stations

Nearby Weather Stations

Station Location Temp. Windchill Dew Point Humidity Wind Precip. Elev Updated Type